sensor_id;sensor_type;location;lat;lon;timestamp;P1;durP1;ratioP1;P2;durP2;ratioP2
15706;SDS011;7953;54.302;10.128;2023-02-28T00:01:53;13.73;;;6.40;;
15706;SDS011;7953;54.302;10.128;2023-02-28T00:04:20;8.77;;;5.60;;
15706;SDS011;7953;54.302;10.128;2023-02-28T00:06:46;10.07;;;6.10;;
15706;SDS011;7953;54.302;10.128;2023-02-28T00:09:15;8.97;;;5.93;;
15706;SDS011;7953;54.302;10.128;2023-02-28T00:11:41;9.97;;;5.93;;
15706;SDS011;7953;54.302;10.128;2023-02-28T00:14:08;6.00;;;4.90;;
15706;SDS011;7953;54.302;10.128;2023-02-28T00:16:35;10.80;;;5.50;;
15706;SDS011;7953;54.302;10.128;2023-02-28T00:19:02;7.23;;;4.67;;
15706;SDS011;7953;54.302;10.128;2023-02-28T00:21:29;6.50;;;4.70;;
15706;SDS011;7953;54.302;10.128;2023-02-28T00:23:56;10.40;;;4.33;;
15706;SDS011;7953;54.302;10.128;2023-02-28T00:26:24;7.40;;;5.73;;
15706;SDS011;7953;54.302;10.128;2023-02-28T00:28:51;8.23;;;5.50;;
15706;SDS011;7953;54.302;10.128;2023-02-28T00:31:18;6.67;;;5.50;;
15706;SDS011;7953;54.302;10.128;2023-02-28T00:33:45;7.70;;;5.27;;
15706;SDS011;7953;54.302;10.128;2023-02-28T00:36:12;7.40;;;5.47;;
15706;SDS011;7953;54.302;10.128;2023-02-28T00:38:39;9.97;;;5.43;;
15706;SDS011;7953;54.302;10.128;2023-02-28T00:41:07;7.00;;;5.37;;
15706;SDS011;7953;54.302;10.128;2023-02-28T00:43:36;8.73;;;5.43;;
15706;SDS011;7953;54.302;10.128;2023-02-28T00:46:04;7.13;;;5.77;;
15706;SDS011;7953;54.302;10.128;2023-02-28T00:48:31;8.07;;;5.03;;
15706;SDS011;7953;54.302;10.128;2023-02-28T00:50:58;9.83;;;5.20;;
15706;SDS011;7953;54.302;10.128;2023-02-28T00:53:25;8.27;;;4.93;;
15706;SDS011;7953;54.302;10.128;2023-02-28T00:55:52;8.70;;;5.33;;
15706;SDS011;7953;54.302;10.128;2023-02-28T00:58:19;7.20;;;4.60;;
15706;SDS011;7953;54.302;10.128;2023-02-28T01:00:47;7.77;;;5.10;;
15706;SDS011;7953;54.302;10.128;2023-02-28T01:03:15;6.47;;;4.90;;
15706;SDS011;7953;54.302;10.128;2023-02-28T01:05:42;8.83;;;4.77;;
15706;SDS011;7953;54.302;10.128;2023-02-28T01:08:09;7.10;;;4.40;;
15706;SDS011;7953;54.302;10.128;2023-02-28T01:10:36;10.20;;;4.60;;
15706;SDS011;7953;54.302;10.128;2023-02-28T01:13:03;7.07;;;4.47;;
15706;SDS011;7953;54.302;10.128;2023-02-28T01:15:30;8.63;;;5.03;;
15706;SDS011;7953;54.302;10.128;2023-02-28T01:17:59;7.53;;;4.50;;
15706;SDS011;7953;54.302;10.128;2023-02-28T01:20:26;5.23;;;4.20;;
15706;SDS011;7953;54.302;10.128;2023-02-28T01:22:53;10.90;;;4.83;;
15706;SDS011;7953;54.302;10.128;2023-02-28T01:25:20;11.90;;;4.80;;
15706;SDS011;7953;54.302;10.128;2023-02-28T01:27:47;6.23;;;5.10;;
15706;SDS011;7953;54.302;10.128;2023-02-28T01:30:13;10.83;;;5.33;;
15706;SDS011;7953;54.302;10.128;2023-02-28T01:32:40;6.43;;;4.83;;
15706;SDS011;7953;54.302;10.128;2023-02-28T01:35:09;7.77;;;4.87;;
15706;SDS011;7953;54.302;10.128;2023-02-28T01:37:36;7.30;;;4.27;;
15706;SDS011;7953;54.302;10.128;2023-02-28T01:40:03;8.50;;;4.30;;
15706;SDS011;7953;54.302;10.128;2023-02-28T01:42:30;8.20;;;3.93;;
15706;SDS011;7953;54.302;10.128;2023-02-28T01:44:59;4.80;;;4.00;;
15706;SDS011;7953;54.302;10.128;2023-02-28T01:47:30;6.83;;;4.37;;
15706;SDS011;7953;54.302;10.128;2023-02-28T01:50:01;7.63;;;4.17;;
15706;SDS011;7953;54.302;10.128;2023-02-28T01:52:33;4.70;;;3.63;;
15706;SDS011;7953;54.302;10.128;2023-02-28T01:55:01;8.57;;;3.83;;
15706;SDS011;7953;54.302;10.128;2023-02-28T01:57:32;6.47;;;3.70;;
15706;SDS011;7953;54.302;10.128;2023-02-28T02:00:04;6.73;;;3.77;;
15706;SDS011;7953;54.302;10.128;2023-02-28T02:02:34;6.77;;;3.83;;
15706;SDS011;7953;54.302;10.128;2023-02-28T02:05:04;4.57;;;3.70;;
15706;SDS011;7953;54.302;10.128;2023-02-28T02:07:34;8.70;;;4.37;;
15706;SDS011;7953;54.302;10.128;2023-02-28T02:10:03;5.83;;;3.87;;
15706;SDS011;7953;54.302;10.128;2023-02-28T02:12:37;6.43;;;3.80;;
15706;SDS011;7953;54.302;10.128;2023-02-28T02:15:19;6.33;;;3.97;;
15706;SDS011;7953;54.302;10.128;2023-02-28T02:17:52;6.23;;;4.33;;
15706;SDS011;7953;54.302;10.128;2023-02-28T02:20:41;6.97;;;4.37;;
15706;SDS011;7953;54.302;10.128;2023-02-28T02:23:32;5.80;;;4.40;;
15706;SDS011;7953;54.302;10.128;2023-02-28T02:26:39;8.17;;;4.40;;
15706;SDS011;7953;54.302;10.128;2023-02-28T02:32:53;7.53;;;4.87;;
15706;SDS011;7953;54.302;10.128;2023-02-28T02:35:45;9.90;;;4.93;;
15706;SDS011;7953;54.302;10.128;2023-02-28T02:38:18;7.77;;;4.60;;
15706;SDS011;7953;54.302;10.128;2023-02-28T02:40:56;8.77;;;4.77;;
15706;SDS011;7953;54.302;10.128;2023-02-28T02:43:29;5.87;;;3.80;;
15706;SDS011;7953;54.302;10.128;2023-02-28T02:46:02;6.03;;;3.90;;
15706;SDS011;7953;54.302;10.128;2023-02-28T02:48:34;6.30;;;4.60;;
15706;SDS011;7953;54.302;10.128;2023-02-28T02:51:06;9.30;;;4.47;;
15706;SDS011;7953;54.302;10.128;2023-02-28T02:53:38;5.87;;;4.67;;
15706;SDS011;7953;54.302;10.128;2023-02-28T02:56:08;5.40;;;4.03;;
15706;SDS011;7953;54.302;10.128;2023-02-28T02:58:37;7.33;;;4.63;;
15706;SDS011;7953;54.302;10.128;2023-02-28T03:01:07;5.70;;;4.07;;
15706;SDS011;7953;54.302;10.128;2023-02-28T03:03:38;6.07;;;4.53;;
15706;SDS011;7953;54.302;10.128;2023-02-28T03:06:07;7.13;;;4.73;;
15706;SDS011;7953;54.302;10.128;2023-02-28T03:08:36;8.60;;;4.30;;
15706;SDS011;7953;54.302;10.128;2023-02-28T03:11:04;6.43;;;4.20;;
15706;SDS011;7953;54.302;10.128;2023-02-28T03:13:41;8.63;;;4.97;;
15706;SDS011;7953;54.302;10.128;2023-02-28T03:16:35;6.53;;;4.50;;
15706;SDS011;7953;54.302;10.128;2023-02-28T03:19:15;7.47;;;4.60;;
15706;SDS011;7953;54.302;10.128;2023-02-28T03:22:00;6.80;;;4.37;;
15706;SDS011;7953;54.302;10.128;2023-02-28T03:24:37;5.93;;;4.80;;
15706;SDS011;7953;54.302;10.128;2023-02-28T03:27:10;9.17;;;5.00;;
15706;SDS011;7953;54.302;10.128;2023-02-28T03:29:43;5.90;;;4.30;;
15706;SDS011;7953;54.302;10.128;2023-02-28T03:32:16;7.87;;;4.47;;
15706;SDS011;7953;54.302;10.128;2023-02-28T03:34:48;7.47;;;4.30;;
15706;SDS011;7953;54.302;10.128;2023-02-28T03:37:23;6.87;;;5.03;;
15706;SDS011;7953;54.302;10.128;2023-02-28T03:39:55;6.27;;;4.43;;
15706;SDS011;7953;54.302;10.128;2023-02-28T03:42:25;9.20;;;4.67;;
15706;SDS011;7953;54.302;10.128;2023-02-28T03:44:55;9.67;;;4.93;;
15706;SDS011;7953;54.302;10.128;2023-02-28T03:47:27;6.70;;;4.97;;
15706;SDS011;7953;54.302;10.128;2023-02-28T03:49:58;8.47;;;5.10;;
15706;SDS011;7953;54.302;10.128;2023-02-28T03:52:29;7.50;;;4.70;;
15706;SDS011;7953;54.302;10.128;2023-02-28T03:55:00;7.67;;;4.23;;
15706;SDS011;7953;54.302;10.128;2023-02-28T03:57:33;10.53;;;4.77;;
15706;SDS011;7953;54.302;10.128;2023-02-28T04:00:05;7.37;;;4.63;;
15706;SDS011;7953;54.302;10.128;2023-02-28T04:02:36;6.37;;;4.93;;
15706;SDS011;7953;54.302;10.128;2023-02-28T04:05:04;6.77;;;4.90;;
15706;SDS011;7953;54.302;10.128;2023-02-28T04:07:33;8.70;;;6.20;;
15706;SDS011;7953;54.302;10.128;2023-02-28T04:10:01;9.30;;;4.97;;
15706;SDS011;7953;54.302;10.128;2023-02-28T04:12:30;9.23;;;5.00;;
15706;SDS011;7953;54.302;10.128;2023-02-28T04:14:56;10.63;;;5.27;;
15706;SDS011;7953;54.302;10.128;2023-02-28T04:17:24;8.90;;;5.87;;
15706;SDS011;7953;54.302;10.128;2023-02-28T04:19:51;7.83;;;5.57;;
15706;SDS011;7953;54.302;10.128;2023-02-28T04:22:19;9.70;;;5.30;;
15706;SDS011;7953;54.302;10.128;2023-02-28T04:24:47;5.87;;;5.20;;
15706;SDS011;7953;54.302;10.128;2023-02-28T04:27:14;8.80;;;6.00;;
15706;SDS011;7953;54.302;10.128;2023-02-28T04:29:41;11.20;;;6.20;;
15706;SDS011;7953;54.302;10.128;2023-02-28T04:32:09;8.07;;;5.77;;
15706;SDS011;7953;54.302;10.128;2023-02-28T04:34:37;12.77;;;5.80;;
15706;SDS011;7953;54.302;10.128;2023-02-28T04:37:04;8.20;;;6.17;;
15706;SDS011;7953;54.302;10.128;2023-02-28T04:39:34;10.07;;;6.80;;
15706;SDS011;7953;54.302;10.128;2023-02-28T04:42:03;9.67;;;6.40;;
15706;SDS011;7953;54.302;10.128;2023-02-28T04:44:30;8.40;;;5.53;;
15706;SDS011;7953;54.302;10.128;2023-02-28T04:46:57;8.47;;;5.87;;
15706;SDS011;7953;54.302;10.128;2023-02-28T04:49:24;8.27;;;5.60;;
15706;SDS011;7953;54.302;10.128;2023-02-28T04:51:52;11.73;;;6.17;;
15706;SDS011;7953;54.302;10.128;2023-02-28T04:54:19;10.57;;;5.97;;
15706;SDS011;7953;54.302;10.128;2023-02-28T04:56:46;9.23;;;5.10;;
15706;SDS011;7953;54.302;10.128;2023-02-28T04:59:16;7.10;;;5.30;;
15706;SDS011;7953;54.302;10.128;2023-02-28T05:01:45;7.70;;;5.87;;
15706;SDS011;7953;54.302;10.128;2023-02-28T05:04:13;6.97;;;5.37;;
15706;SDS011;7953;54.302;10.128;2023-02-28T05:06:40;8.03;;;5.23;;
15706;SDS011;7953;54.302;10.128;2023-02-28T05:09:07;9.30;;;5.90;;
15706;SDS011;7953;54.302;10.128;2023-02-28T05:11:36;7.20;;;5.43;;
15706;SDS011;7953;54.302;10.128;2023-02-28T05:14:04;6.57;;;5.30;;
15706;SDS011;7953;54.302;10.128;2023-02-28T05:16:34;8.63;;;5.40;;
15706;SDS011;7953;54.302;10.128;2023-02-28T05:19:00;9.20;;;5.90;;
15706;SDS011;7953;54.302;10.128;2023-02-28T05:21:28;11.47;;;6.20;;
15706;SDS011;7953;54.302;10.128;2023-02-28T05:23:57;10.70;;;6.40;;
15706;SDS011;7953;54.302;10.128;2023-02-28T05:26:26;7.77;;;5.70;;
15706;SDS011;7953;54.302;10.128;2023-02-28T05:28:54;10.63;;;6.43;;
15706;SDS011;7953;54.302;10.128;2023-02-28T05:31:21;9.83;;;6.33;;
15706;SDS011;7953;54.302;10.128;2023-02-28T05:33:50;7.50;;;5.93;;
15706;SDS011;7953;54.302;10.128;2023-02-28T05:36:17;9.07;;;5.50;;
15706;SDS011;7953;54.302;10.128;2023-02-28T05:38:45;8.53;;;5.80;;
15706;SDS011;7953;54.302;10.128;2023-02-28T05:41:14;11.47;;;6.33;;
15706;SDS011;7953;54.302;10.128;2023-02-28T05:43:42;8.23;;;7.03;;
15706;SDS011;7953;54.302;10.128;2023-02-28T05:46:10;10.13;;;7.30;;
15706;SDS011;7953;54.302;10.128;2023-02-28T05:48:38;13.70;;;6.40;;
15706;SDS011;7953;54.302;10.128;2023-02-28T05:51:07;13.63;;;7.80;;
15706;SDS011;7953;54.302;10.128;2023-02-28T05:53:34;9.13;;;7.17;;
15706;SDS011;7953;54.302;10.128;2023-02-28T05:56:02;9.13;;;6.57;;
15706;SDS011;7953;54.302;10.128;2023-02-28T05:58:29;13.83;;;7.10;;
15706;SDS011;7953;54.302;10.128;2023-02-28T06:00:57;10.47;;;7.50;;
15706;SDS011;7953;54.302;10.128;2023-02-28T06:03:24;11.77;;;6.73;;
15706;SDS011;7953;54.302;10.128;2023-02-28T06:05:51;12.27;;;8.10;;
15706;SDS011;7953;54.302;10.128;2023-02-28T06:08:19;14.57;;;8.20;;
15706;SDS011;7953;54.302;10.128;2023-02-28T06:10:46;12.60;;;8.43;;
15706;SDS011;7953;54.302;10.128;2023-02-28T06:13:14;10.57;;;7.70;;
15706;SDS011;7953;54.302;10.128;2023-02-28T06:15:41;9.57;;;7.67;;
15706;SDS011;7953;54.302;10.128;2023-02-28T06:18:08;10.27;;;7.03;;
15706;SDS011;7953;54.302;10.128;2023-02-28T06:20:35;11.17;;;7.97;;
15706;SDS011;7953;54.302;10.128;2023-02-28T06:23:02;9.23;;;7.80;;
15706;SDS011;7953;54.302;10.128;2023-02-28T06:25:30;13.00;;;8.47;;
15706;SDS011;7953;54.302;10.128;2023-02-28T06:27:57;14.57;;;7.97;;
15706;SDS011;7953;54.302;10.128;2023-02-28T06:30:24;13.57;;;8.10;;
15706;SDS011;7953;54.302;10.128;2023-02-28T06:32:53;10.50;;;7.80;;
15706;SDS011;7953;54.302;10.128;2023-02-28T06:35:20;13.00;;;8.60;;
15706;SDS011;7953;54.302;10.128;2023-02-28T06:37:47;9.27;;;7.80;;
15706;SDS011;7953;54.302;10.128;2023-02-28T06:40:14;13.97;;;8.57;;
15706;SDS011;7953;54.302;10.128;2023-02-28T06:42:43;14.17;;;9.93;;
15706;SDS011;7953;54.302;10.128;2023-02-28T06:45:12;13.50;;;9.80;;
15706;SDS011;7953;54.302;10.128;2023-02-28T06:47:41;19.73;;;13.60;;
15706;SDS011;7953;54.302;10.128;2023-02-28T06:50:09;35.80;;;25.63;;
15706;SDS011;7953;54.302;10.128;2023-02-28T06:52:37;20.63;;;16.83;;
15706;SDS011;7953;54.302;10.128;2023-02-28T06:55:04;22.53;;;16.93;;
15706;SDS011;7953;54.302;10.128;2023-02-28T06:57:33;18.57;;;13.17;;
15706;SDS011;7953;54.302;10.128;2023-02-28T07:00:03;17.67;;;12.07;;
15706;SDS011;7953;54.302;10.128;2023-02-28T07:02:32;15.50;;;10.37;;
15706;SDS011;7953;54.302;10.128;2023-02-28T07:04:59;11.67;;;9.17;;
15706;SDS011;7953;54.302;10.128;2023-02-28T07:07:26;12.13;;;9.00;;
15706;SDS011;7953;54.302;10.128;2023-02-28T07:09:53;11.63;;;9.23;;
15706;SDS011;7953;54.302;10.128;2023-02-28T07:12:20;13.83;;;9.27;;
15706;SDS011;7953;54.302;10.128;2023-02-28T07:14:47;16.23;;;11.37;;
15706;SDS011;7953;54.302;10.128;2023-02-28T07:17:15;20.67;;;18.20;;
15706;SDS011;7953;54.302;10.128;2023-02-28T07:19:42;17.23;;;15.50;;
15706;SDS011;7953;54.302;10.128;2023-02-28T07:22:09;15.37;;;12.33;;
15706;SDS011;7953;54.302;10.128;2023-02-28T07:24:37;14.20;;;9.83;;
15706;SDS011;7953;54.302;10.128;2023-02-28T07:27:04;12.70;;;10.53;;
15706;SDS011;7953;54.302;10.128;2023-02-28T07:29:31;12.70;;;9.60;;
15706;SDS011;7953;54.302;10.128;2023-02-28T07:31:58;14.73;;;10.20;;
15706;SDS011;7953;54.302;10.128;2023-02-28T07:34:26;13.67;;;10.77;;
15706;SDS011;7953;54.302;10.128;2023-02-28T07:36:53;15.20;;;10.73;;
15706;SDS011;7953;54.302;10.128;2023-02-28T07:39:21;17.97;;;10.80;;
15706;SDS011;7953;54.302;10.128;2023-02-28T07:41:48;16.07;;;10.20;;
15706;SDS011;7953;54.302;10.128;2023-02-28T07:44:15;11.33;;;9.03;;
15706;SDS011;7953;54.302;10.128;2023-02-28T07:46:42;12.00;;;8.77;;
15706;SDS011;7953;54.302;10.128;2023-02-28T07:49:09;13.87;;;9.27;;
15706;SDS011;7953;54.302;10.128;2023-02-28T07:51:38;13.70;;;9.00;;
15706;SDS011;7953;54.302;10.128;2023-02-28T07:54:05;12.83;;;8.47;;
15706;SDS011;7953;54.302;10.128;2023-02-28T07:56:32;10.70;;;8.17;;
15706;SDS011;7953;54.302;10.128;2023-02-28T07:58:59;10.77;;;7.70;;
15706;SDS011;7953;54.302;10.128;2023-02-28T08:01:27;10.27;;;7.63;;
15706;SDS011;7953;54.302;10.128;2023-02-28T08:03:54;13.20;;;8.33;;
15706;SDS011;7953;54.302;10.128;2023-02-28T08:06:22;12.60;;;8.30;;
15706;SDS011;7953;54.302;10.128;2023-02-28T08:08:52;8.10;;;6.40;;
15706;SDS011;7953;54.302;10.128;2023-02-28T08:11:21;10.63;;;6.23;;
15706;SDS011;7953;54.302;10.128;2023-02-28T08:13:48;8.60;;;6.43;;
15706;SDS011;7953;54.302;10.128;2023-02-28T08:16:16;8.37;;;6.43;;
15706;SDS011;7953;54.302;10.128;2023-02-28T08:18:47;8.70;;;6.63;;
15706;SDS011;7953;54.302;10.128;2023-02-28T08:21:14;10.37;;;6.90;;
15706;SDS011;7953;54.302;10.128;2023-02-28T08:23:41;8.67;;;6.80;;
15706;SDS011;7953;54.302;10.128;2023-02-28T08:26:09;8.33;;;6.20;;
15706;SDS011;7953;54.302;10.128;2023-02-28T08:28:36;8.67;;;6.30;;
15706;SDS011;7953;54.302;10.128;2023-02-28T08:31:06;12.20;;;6.97;;
15706;SDS011;7953;54.302;10.128;2023-02-28T08:33:34;11.67;;;6.53;;
15706;SDS011;7953;54.302;10.128;2023-02-28T08:36:01;13.50;;;6.53;;
15706;SDS011;7953;54.302;10.128;2023-02-28T08:38:28;11.50;;;6.03;;
15706;SDS011;7953;54.302;10.128;2023-02-28T08:40:58;9.80;;;5.73;;
15706;SDS011;7953;54.302;10.128;2023-02-28T08:43:28;8.43;;;5.60;;
15706;SDS011;7953;54.302;10.128;2023-02-28T08:45:56;9.20;;;5.93;;
15706;SDS011;7953;54.302;10.128;2023-02-28T08:48:23;8.33;;;5.50;;
15706;SDS011;7953;54.302;10.128;2023-02-28T08:50:57;11.67;;;5.60;;
15706;SDS011;7953;54.302;10.128;2023-02-28T08:53:25;12.63;;;5.63;;
15706;SDS011;7953;54.302;10.128;2023-02-28T08:55:55;8.50;;;5.40;;
15706;SDS011;7953;54.302;10.128;2023-02-28T08:58:23;7.43;;;4.70;;
15706;SDS011;7953;54.302;10.128;2023-02-28T09:00:51;8.80;;;4.70;;
15706;SDS011;7953;54.302;10.128;2023-02-28T09:03:18;7.83;;;4.90;;
15706;SDS011;7953;54.302;10.128;2023-02-28T09:05:51;8.50;;;5.33;;
15706;SDS011;7953;54.302;10.128;2023-02-28T09:08:19;8.13;;;5.10;;
15706;SDS011;7953;54.302;10.128;2023-02-28T09:10:46;10.43;;;5.23;;
15706;SDS011;7953;54.302;10.128;2023-02-28T09:13:13;7.63;;;5.37;;
15706;SDS011;7953;54.302;10.128;2023-02-28T09:15:40;6.83;;;4.73;;
15706;SDS011;7953;54.302;10.128;2023-02-28T09:18:08;7.40;;;4.40;;
15706;SDS011;7953;54.302;10.128;2023-02-28T09:20:37;9.10;;;4.47;;
15706;SDS011;7953;54.302;10.128;2023-02-28T09:23:05;5.83;;;4.03;;
15706;SDS011;7953;54.302;10.128;2023-02-28T09:25:32;7.83;;;4.10;;
15706;SDS011;7953;54.302;10.128;2023-02-28T09:27:59;3.90;;;3.10;;
15706;SDS011;7953;54.302;10.128;2023-02-28T09:30:27;5.07;;;3.23;;
15706;SDS011;7953;54.302;10.128;2023-02-28T09:32:54;4.60;;;3.33;;
15706;SDS011;7953;54.302;10.128;2023-02-28T09:35:23;7.43;;;4.33;;
15706;SDS011;7953;54.302;10.128;2023-02-28T09:37:51;5.00;;;3.20;;
15706;SDS011;7953;54.302;10.128;2023-02-28T09:40:19;7.40;;;3.60;;
15706;SDS011;7953;54.302;10.128;2023-02-28T09:42:49;6.23;;;3.60;;
15706;SDS011;7953;54.302;10.128;2023-02-28T09:45:19;4.63;;;2.90;;
15706;SDS011;7953;54.302;10.128;2023-02-28T09:47:50;4.07;;;2.33;;
15706;SDS011;7953;54.302;10.128;2023-02-28T09:50:23;4.80;;;2.57;;
15706;SDS011;7953;54.302;10.128;2023-02-28T09:52:58;5.17;;;3.27;;
15706;SDS011;7953;54.302;10.128;2023-02-28T09:55:28;3.90;;;2.40;;
15706;SDS011;7953;54.302;10.128;2023-02-28T09:57:59;2.83;;;2.00;;
15706;SDS011;7953;54.302;10.128;2023-02-28T10:00:28;2.97;;;2.20;;
15706;SDS011;7953;54.302;10.128;2023-02-28T10:03:09;2.80;;;2.30;;
15706;SDS011;7953;54.302;10.128;2023-02-28T10:05:59;3.90;;;2.90;;
15706;SDS011;7953;54.302;10.128;2023-02-28T10:08:33;5.50;;;2.60;;
15706;SDS011;7953;54.302;10.128;2023-02-28T10:11:07;3.60;;;2.53;;
15706;SDS011;7953;54.302;10.128;2023-02-28T10:13:39;4.33;;;2.00;;
15706;SDS011;7953;54.302;10.128;2023-02-28T10:16:15;2.33;;;1.70;;
15706;SDS011;7953;54.302;10.128;2023-02-28T10:18:47;3.77;;;1.90;;
15706;SDS011;7953;54.302;10.128;2023-02-28T10:21:20;3.50;;;1.93;;
15706;SDS011;7953;54.302;10.128;2023-02-28T10:23:53;3.07;;;2.20;;
15706;SDS011;7953;54.302;10.128;2023-02-28T10:26:28;3.00;;;2.23;;
15706;SDS011;7953;54.302;10.128;2023-02-28T10:28:56;5.60;;;2.80;;
15706;SDS011;7953;54.302;10.128;2023-02-28T10:31:23;3.20;;;2.10;;
15706;SDS011;7953;54.302;10.128;2023-02-28T10:33:50;2.67;;;1.70;;
15706;SDS011;7953;54.302;10.128;2023-02-28T10:36:17;3.73;;;2.13;;
15706;SDS011;7953;54.302;10.128;2023-02-28T10:38:47;4.60;;;1.63;;
15706;SDS011;7953;54.302;10.128;2023-02-28T10:41:16;3.10;;;1.80;;
15706;SDS011;7953;54.302;10.128;2023-02-28T10:43:52;2.37;;;1.87;;
15706;SDS011;7953;54.302;10.128;2023-02-28T10:46:38;3.80;;;1.60;;
15706;SDS011;7953;54.302;10.128;2023-02-28T10:49:11;2.10;;;1.83;;
15706;SDS011;7953;54.302;10.128;2023-02-28T10:51:42;3.07;;;1.70;;
15706;SDS011;7953;54.302;10.128;2023-02-28T10:54:15;4.00;;;2.20;;
15706;SDS011;7953;54.302;10.128;2023-02-28T10:56:45;3.23;;;2.93;;
15706;SDS011;7953;54.302;10.128;2023-02-28T10:59:26;4.63;;;2.33;;
15706;SDS011;7953;54.302;10.128;2023-02-28T11:01:55;3.37;;;1.67;;
15706;SDS011;7953;54.302;10.128;2023-02-28T11:04:32;3.10;;;1.60;;
15706;SDS011;7953;54.302;10.128;2023-02-28T11:07:05;3.63;;;3.30;;
15706;SDS011;7953;54.302;10.128;2023-02-28T11:09:45;1.97;;;1.53;;
15706;SDS011;7953;54.302;10.128;2023-02-28T11:12:19;4.27;;;1.67;;
15706;SDS011;7953;54.302;10.128;2023-02-28T11:14:49;3.03;;;1.70;;
15706;SDS011;7953;54.302;10.128;2023-02-28T11:17:19;2.60;;;1.83;;
15706;SDS011;7953;54.302;10.128;2023-02-28T11:19:50;2.53;;;1.77;;
15706;SDS011;7953;54.302;10.128;2023-02-28T11:22:23;2.10;;;1.33;;
15706;SDS011;7953;54.302;10.128;2023-02-28T11:24:54;2.37;;;1.90;;
15706;SDS011;7953;54.302;10.128;2023-02-28T11:27:24;3.13;;;1.90;;
15706;SDS011;7953;54.302;10.128;2023-02-28T11:30:11;2.80;;;1.80;;
15706;SDS011;7953;54.302;10.128;2023-02-28T11:32:50;2.83;;;1.70;;
15706;SDS011;7953;54.302;10.128;2023-02-28T11:35:18;2.63;;;1.90;;
15706;SDS011;7953;54.302;10.128;2023-02-28T11:37:51;3.50;;;1.90;;
15706;SDS011;7953;54.302;10.128;2023-02-28T11:40:19;2.60;;;1.97;;
15706;SDS011;7953;54.302;10.128;2023-02-28T11:42:57;2.80;;;2.03;;
15706;SDS011;7953;54.302;10.128;2023-02-28T11:45:42;3.30;;;1.90;;
15706;SDS011;7953;54.302;10.128;2023-02-28T11:48:17;3.13;;;2.53;;
15706;SDS011;7953;54.302;10.128;2023-02-28T11:50:55;4.33;;;2.90;;
15706;SDS011;7953;54.302;10.128;2023-02-28T11:54:02;4.30;;;2.40;;
15706;SDS011;7953;54.302;10.128;2023-02-28T11:56:48;2.13;;;1.93;;
15706;SDS011;7953;54.302;10.128;2023-02-28T12:02:23;8.57;;;5.47;;
15706;SDS011;7953;54.302;10.128;2023-02-28T12:04:57;4.90;;;3.70;;
15706;SDS011;7953;54.302;10.128;2023-02-28T12:07:38;2.90;;;1.90;;
15706;SDS011;7953;54.302;10.128;2023-02-28T12:10:17;5.50;;;1.67;;
15706;SDS011;7953;54.302;10.128;2023-02-28T12:12:50;2.53;;;1.67;;
15706;SDS011;7953;54.302;10.128;2023-02-28T12:15:39;3.03;;;1.83;;
15706;SDS011;7953;54.302;10.128;2023-02-28T12:21:30;2.10;;;1.43;;
15706;SDS011;7953;54.302;10.128;2023-02-28T12:24:31;2.90;;;1.50;;
15706;SDS011;7953;54.302;10.128;2023-02-28T12:27:15;2.67;;;1.30;;
15706;SDS011;7953;54.302;10.128;2023-02-28T12:29:47;2.23;;;1.80;;
15706;SDS011;7953;54.302;10.128;2023-02-28T12:32:18;3.13;;;1.57;;
15706;SDS011;7953;54.302;10.128;2023-02-28T12:34:52;2.43;;;1.70;;
15706;SDS011;7953;54.302;10.128;2023-02-28T12:37:27;3.00;;;1.70;;
15706;SDS011;7953;54.302;10.128;2023-02-28T12:40:00;3.50;;;1.53;;
15706;SDS011;7953;54.302;10.128;2023-02-28T12:42:33;1.80;;;1.33;;
15706;SDS011;7953;54.302;10.128;2023-02-28T12:45:05;3.97;;;1.63;;
15706;SDS011;7953;54.302;10.128;2023-02-28T12:47:38;5.80;;;1.63;;
15706;SDS011;7953;54.302;10.128;2023-02-28T12:50:08;2.67;;;2.03;;
15706;SDS011;7953;54.302;10.128;2023-02-28T12:52:39;4.60;;;1.87;;
15706;SDS011;7953;54.302;10.128;2023-02-28T12:55:12;1.40;;;1.30;;
15706;SDS011;7953;54.302;10.128;2023-02-28T12:57:48;2.33;;;1.60;;
15706;SDS011;7953;54.302;10.128;2023-02-28T13:00:22;3.50;;;1.80;;
15706;SDS011;7953;54.302;10.128;2023-02-28T13:09:02;3.90;;;1.43;;
15706;SDS011;7953;54.302;10.128;2023-02-28T13:11:31;1.77;;;1.37;;
15706;SDS011;7953;54.302;10.128;2023-02-28T13:14:06;2.97;;;1.43;;
15706;SDS011;7953;54.302;10.128;2023-02-28T13:16:51;3.33;;;1.53;;
15706;SDS011;7953;54.302;10.128;2023-02-28T13:19:24;3.90;;;1.60;;
15706;SDS011;7953;54.302;10.128;2023-02-28T13:21:54;2.03;;;1.30;;
15706;SDS011;7953;54.302;10.128;2023-02-28T13:24:45;2.60;;;1.53;;
15706;SDS011;7953;54.302;10.128;2023-02-28T13:36:09;2.90;;;1.77;;
15706;SDS011;7953;54.302;10.128;2023-02-28T13:38:49;2.10;;;1.63;;
15706;SDS011;7953;54.302;10.128;2023-02-28T13:44:13;3.17;;;1.60;;
15706;SDS011;7953;54.302;10.128;2023-02-28T13:49:49;3.00;;;1.50;;
15706;SDS011;7953;54.302;10.128;2023-02-28T13:52:18;2.37;;;1.57;;
15706;SDS011;7953;54.302;10.128;2023-02-28T13:54:56;3.60;;;1.63;;
15706;SDS011;7953;54.302;10.128;2023-02-28T13:57:44;2.10;;;1.60;;
15706;SDS011;7953;54.302;10.128;2023-02-28T14:00:25;3.07;;;1.87;;
15706;SDS011;7953;54.302;10.128;2023-02-28T14:03:13;2.87;;;1.40;;
15706;SDS011;7953;54.302;10.128;2023-02-28T14:08:55;3.67;;;1.80;;
15706;SDS011;7953;54.302;10.128;2023-02-28T14:11:29;3.47;;;2.17;;
15706;SDS011;7953;54.302;10.128;2023-02-28T14:13:58;2.73;;;1.60;;
15706;SDS011;7953;54.302;10.128;2023-02-28T14:16:26;2.67;;;1.60;;
15706;SDS011;7953;54.302;10.128;2023-02-28T14:19:01;2.20;;;2.00;;
15706;SDS011;7953;54.302;10.128;2023-02-28T14:21:38;3.57;;;2.07;;
15706;SDS011;7953;54.302;10.128;2023-02-28T14:24:20;2.37;;;1.70;;
15706;SDS011;7953;54.302;10.128;2023-02-28T14:29:53;1.97;;;1.70;;
15706;SDS011;7953;54.302;10.128;2023-02-28T14:32:47;4.07;;;1.73;;
15706;SDS011;7953;54.302;10.128;2023-02-28T14:35:35;3.40;;;2.00;;
15706;SDS011;7953;54.302;10.128;2023-02-28T14:38:16;5.23;;;2.03;;
15706;SDS011;7953;54.302;10.128;2023-02-28T14:40:46;2.53;;;1.60;;
15706;SDS011;7953;54.302;10.128;2023-02-28T14:43:19;3.73;;;2.00;;
15706;SDS011;7953;54.302;10.128;2023-02-28T14:45:49;4.60;;;1.80;;
15706;SDS011;7953;54.302;10.128;2023-02-28T14:48:18;2.93;;;1.50;;
15706;SDS011;7953;54.302;10.128;2023-02-28T14:50:48;3.47;;;1.90;;
15706;SDS011;7953;54.302;10.128;2023-02-28T14:53:19;2.30;;;1.67;;
15706;SDS011;7953;54.302;10.128;2023-02-28T14:55:48;2.53;;;1.70;;
15706;SDS011;7953;54.302;10.128;2023-02-28T14:58:21;3.10;;;1.50;;
15706;SDS011;7953;54.302;10.128;2023-02-28T15:00:50;2.77;;;1.80;;
15706;SDS011;7953;54.302;10.128;2023-02-28T15:03:19;4.70;;;2.20;;
15706;SDS011;7953;54.302;10.128;2023-02-28T15:05:51;2.30;;;1.60;;
15706;SDS011;7953;54.302;10.128;2023-02-28T15:08:22;1.57;;;1.43;;
15706;SDS011;7953;54.302;10.128;2023-02-28T15:10:51;2.27;;;1.80;;
15706;SDS011;7953;54.302;10.128;2023-02-28T15:13:20;2.07;;;1.77;;
15706;SDS011;7953;54.302;10.128;2023-02-28T15:15:49;2.70;;;2.13;;
15706;SDS011;7953;54.302;10.128;2023-02-28T15:18:26;2.83;;;1.90;;
15706;SDS011;7953;54.302;10.128;2023-02-28T15:20:57;2.13;;;1.40;;
15706;SDS011;7953;54.302;10.128;2023-02-28T15:23:29;1.90;;;1.50;;
15706;SDS011;7953;54.302;10.128;2023-02-28T15:25:57;1.70;;;1.57;;
15706;SDS011;7953;54.302;10.128;2023-02-28T15:28:25;2.23;;;2.03;;
15706;SDS011;7953;54.302;10.128;2023-02-28T15:30:54;3.60;;;2.10;;
15706;SDS011;7953;54.302;10.128;2023-02-28T15:33:24;2.90;;;1.70;;
15706;SDS011;7953;54.302;10.128;2023-02-28T15:36:03;2.33;;;1.80;;
15706;SDS011;7953;54.302;10.128;2023-02-28T15:38:39;8.77;;;2.57;;
15706;SDS011;7953;54.302;10.128;2023-02-28T15:41:20;2.70;;;1.77;;
15706;SDS011;7953;54.302;10.128;2023-02-28T15:43:49;3.67;;;1.77;;